Time;durP1;ratioP1;P1;durP2;ratioP2;P2;SDS_P1;SDS_P2;PMS_P1;PMS_P2;Temp;Humidity;BMP_temperature;BMP_pressure;BME280_temperature;BME280_humidity;BME280_pressure;Samples;Min_cycle;Max_cycle;Signal;HPM_P1;HPM_P2
2023/10/07 00:00:56;;;;;;;10.77;4.60;;;;;;;8.87;54.17;96205.13;4913411;29;20900;-77
2023/10/07 00:03:23;;;;;;;10.27;4.38;;;;;;;8.84;54.49;96200.09;4915002;29;20114;-77
2023/10/07 00:05:50;;;;;;;9.57;4.75;;;;;;;8.77;54.20;96194.56;4916124;29;20722;-78
2023/10/07 00:08:26;;;;;;;10.73;4.43;;;;;;;8.79;54.62;96197.91;4932480;29;20415;-77
2023/10/07 00:10:51;;;;;;;8.50;4.43;;;;;;;8.60;54.82;96202.38;4917985;29;20078;-76
2023/10/07 00:13:20;;;;;;;10.80;4.78;;;;;;;8.67;54.71;96206.09;4934191;29;20058;-77
2023/10/07 00:15:47;;;;;;;8.52;4.80;;;;;;;8.73;55.05;96206.47;4914740;29;20080;-76
2023/10/07 00:18:13;;;;;;;12.70;4.72;;;;;;;8.65;55.19;96209.88;4910136;29;20087;-76
2023/10/07 00:20:47;;;;;;;9.40;4.80;;;;;;;8.58;55.35;96204.34;4912393;29;20062;-76
2023/10/07 00:23:18;;;;;;;10.45;4.60;;;;;;;8.60;55.22;96196.25;4886718;29;20091;-76
2023/10/07 00:25:49;;;;;;;8.43;4.25;;;;;;;8.40;56.18;96202.50;4926512;29;20070;-76
2023/10/07 00:28:18;;;;;;;8.63;4.50;;;;;;;8.38;55.92;96201.84;4902083;29;20096;-76
2023/10/07 00:30:45;;;;;;;8.32;4.13;;;;;;;8.41;55.60;96203.34;4910101;29;20098;-76
2023/10/07 00:33:12;;;;;;;9.65;4.40;;;;;;;8.55;55.43;96196.69;4933648;29;20056;-76
2023/10/07 00:35:37;;;;;;;8.20;4.38;;;;;;;8.40;55.90;96191.06;4913977;29;20867;-76
2023/10/07 00:38:03;;;;;;;9.30;4.78;;;;;;;8.39;56.34;96192.03;4929581;29;20085;-76
2023/10/07 00:40:40;;;;;;;11.65;4.72;;;;;;;8.40;56.05;96178.63;4919739;29;20537;-76
2023/10/07 00:43:08;;;;;;;8.95;4.43;;;;;;;8.37;55.92;96186.88;4904290;29;20125;-76
2023/10/07 00:45:34;;;;;;;8.65;4.38;;;;;;;8.07;57.05;96196.00;4925373;29;20068;-76
2023/10/07 00:48:04;;;;;;;13.80;5.13;;;;;;;8.02;57.29;96191.97;4930054;29;20086;-76
2023/10/07 00:50:29;;;;;;;14.20;4.60;;;;;;;7.88;57.74;96195.97;4892627;29;20074;-76
2023/10/07 00:52:56;;;;;;;12.10;4.63;;;;;;;7.74;59.09;96197.25;4919899;29;20070;-76
2023/10/07 00:58:03;;;;;;;9.13;4.30;;;;;;;7.45;59.97;96192.06;4928023;29;20064;-76
2023/10/07 01:03:03;;;;;;;9.35;5.03;;;;;;;7.72;59.44;96198.38;4933737;29;20104;-76
2023/10/07 01:05:33;;;;;;;11.10;4.45;;;;;;;7.52;59.89;96206.41;4932980;29;20097;-76
2023/10/07 01:07:59;;;;;;;10.05;4.93;;;;;;;7.43;60.18;96192.19;4912946;29;20098;-76
2023/10/07 01:10:25;;;;;;;12.82;5.32;;;;;;;7.14;61.83;96193.91;4917103;29;20143;-76
2023/10/07 01:12:51;;;;;;;8.75;4.82;;;;;;;7.40;60.56;96192.47;4915982;29;20071;-76
2023/10/07 01:15:29;;;;;;;16.55;5.47;;;;;;;7.58;60.04;96197.03;4932863;28;20094;-76
2023/10/07 01:17:57;;;;;;;9.30;4.68;;;;;;;7.52;60.47;96190.50;4925028;29;20065;-76
2023/10/07 01:20:25;;;;;;;9.55;4.97;;;;;;;7.70;59.36;96193.22;4934363;29;20425;-76
2023/10/07 01:23:03;;;;;;;9.07;4.83;;;;;;;7.78;59.21;96187.22;4908275;29;20091;-77
2023/10/07 01:25:35;;;;;;;12.48;5.20;;;;;;;7.89;58.14;96192.31;4900103;29;20069;-77
2023/10/07 01:28:02;;;;;;;8.43;4.78;;;;;;;8.02;58.54;96194.63;4929211;29;20106;-77
2023/10/07 01:30:34;;;;;;;11.63;5.60;;;;;;;8.12;57.60;96191.09;4932089;29;20084;-75
2023/10/07 01:36:05;;;;;;;9.80;4.72;;;;;;;8.19;57.73;96186.84;4917211;29;20565;-77
2023/10/07 01:38:26;;;;;;;10.02;4.95;;;;;;;8.34;57.18;96189.00;4929972;29;20084;-74
2023/10/07 01:43:17;;;;;;;8.43;5.03;;;;;;;8.26;57.53;96192.44;4919006;29;20086;-77
2023/10/07 01:45:42;;;;;;;7.10;4.65;;;;;;;8.39;56.83;96184.91;4928407;29;20071;-75
2023/10/07 01:48:08;;;;;;;14.18;5.07;;;;;;;8.43;57.22;96188.09;4919990;29;20075;-76
2023/10/07 01:50:39;;;;;;;10.70;5.15;;;;;;;8.50;56.98;96181.22;4923231;29;20084;-75
2023/10/07 01:53:05;;;;;;;9.15;5.10;;;;;;;8.57;56.25;96174.31;4899557;29;20146;-74
2023/10/07 01:55:42;;;;;;;11.20;5.35;;;;;;;8.61;56.50;96174.88;4918505;29;20080;-75
2023/10/07 01:58:13;;;;;;;8.40;4.28;;;;;;;8.61;55.99;96189.94;4934398;29;20139;-77
2023/10/07 02:01:00;;;;;;;11.52;5.20;;;;;;;8.55;56.41;96188.72;4929530;29;20063;-76
2023/10/07 02:03:25;;;;;;;13.35;5.43;;;;;;;8.68;56.28;96191.00;4917464;29;20086;-75
2023/10/07 02:05:51;;;;;;;10.68;4.78;;;;;;;8.80;55.90;96192.44;4919718;29;20103;-76
2023/10/07 02:08:21;;;;;;;10.73;5.40;;;;;;;8.70;56.51;96191.69;4891148;29;20689;-75
2023/10/07 02:10:57;;;;;;;8.20;4.45;;;;;;;8.81;56.24;96174.69;4889139;29;20609;-75
2023/10/07 02:13:22;;;;;;;13.75;4.97;;;;;;;8.75;56.00;96159.38;4936030;29;20057;-76
2023/10/07 02:15:52;;;;;;;8.68;4.78;;;;;;;8.62;56.64;96154.44;4896949;29;20136;-76
2023/10/07 02:18:17;;;;;;;10.00;5.13;;;;;;;8.41;57.25;96152.94;4908477;29;20099;-74
2023/10/07 02:20:52;;;;;;;10.25;4.97;;;;;;;8.53;56.83;96156.19;4901998;29;20567;-76
2023/10/07 02:23:32;;;;;;;11.52;5.50;;;;;;;8.74;55.76;96160.38;4893086;29;20077;-75
2023/10/07 02:25:58;;;;;;;10.75;5.45;;;;;;;8.43;56.33;96167.72;4901099;29;20052;-76
2023/10/07 02:28:29;;;;;;;13.00;5.50;;;;;;;8.49;55.85;96163.63;4915293;29;20735;-77
2023/10/07 02:31:01;;;;;;;13.05;5.80;;;;;;;8.55;55.65;96157.72;4925358;29;20166;-76
2023/10/07 02:33:27;;;;;;;13.07;5.53;;;;;;;8.55;56.05;96156.88;4922518;29;20082;-78
2023/10/07 02:35:55;;;;;;;8.85;5.18;;;;;;;8.54;55.43;96141.94;4903807;29;20623;-78
2023/10/07 02:38:36;;;;;;;10.73;4.83;;;;;;;8.50;56.05;96136.09;4917802;29;20096;-77
2023/10/07 02:41:16;;;;;;;10.43;5.53;;;;;;;8.53;56.12;96138.44;4918236;29;20308;-76
2023/10/07 02:43:43;;;;;;;9.25;5.28;;;;;;;8.51;55.87;96148.41;4917062;29;20108;-76
2023/10/07 02:46:22;;;;;;;8.32;4.63;;;;;;;8.52;55.65;96146.56;4934680;29;20156;-78
2023/10/07 02:48:47;;;;;;;9.70;5.70;;;;;;;8.39;55.69;96150.44;4918899;29;20170;-76
2023/10/07 02:51:13;;;;;;;10.32;5.40;;;;;;;8.30;56.20;96154.00;4917506;29;20550;-78
2023/10/07 02:53:39;;;;;;;11.15;6.18;;;;;;;8.21;56.09;96147.78;4932821;29;20125;-76
2023/10/07 02:56:16;;;;;;;8.75;5.35;;;;;;;8.29;56.38;96147.84;4916870;29;20083;-78
2023/10/07 02:58:51;;;;;;;10.38;5.45;;;;;;;8.14;56.75;96162.59;4927610;29;20596;-77
2023/10/07 03:01:25;;;;;;;9.23;5.40;;;;;;;7.74;59.25;96176.03;4928535;29;20056;-76
2023/10/07 03:03:50;;;;;;;13.57;5.90;;;;;;;7.83;58.72;96160.25;4924217;29;20616;-78
2023/10/07 03:06:17;;;;;;;10.57;5.18;;;;;;;7.60;60.39;96171.22;4915213;29;20094;-77
2023/10/07 03:08:50;;;;;;;10.48;5.40;;;;;;;7.71;60.00;96168.38;4915998;29;20156;-75
2023/10/07 03:11:22;;;;;;;11.98;6.05;;;;;;;7.49;60.67;96159.00;4916670;29;20089;-75
2023/10/07 03:13:56;;;;;;;10.10;5.18;;;;;;;8.04;59.53;96136.16;4933835;29;20071;-78
2023/10/07 03:18:56;;;;;;;9.35;5.30;;;;;;;8.15;59.06;96130.63;4905964;29;20479;-77
2023/10/07 03:21:22;;;;;;;12.63;5.95;;;;;;;8.26;58.08;96140.19;4916662;29;20060;-76
2023/10/07 03:23:48;;;;;;;10.57;5.68;;;;;;;8.39;57.56;96139.81;4900889;29;20083;-77
2023/10/07 03:26:22;;;;;;;12.50;5.53;;;;;;;8.17;57.27;96135.78;4904460;29;20122;-77
2023/10/07 03:28:52;;;;;;;12.85;6.75;;;;;;;8.26;57.10;96140.19;4919248;29;20267;-78
2023/10/07 03:31:20;;;;;;;12.40;5.85;;;;;;;8.14;57.55;96146.69;4904548;29;20105;-78
2023/10/07 03:33:50;;;;;;;14.60;6.20;;;;;;;8.20;57.80;96156.72;4933376;29;20062;-77
2023/10/07 03:38:43;;;;;;;11.30;5.97;;;;;;;7.84;59.38;96172.53;4911346;29;20099;-76
2023/10/07 03:41:09;;;;;;;16.85;6.43;;;;;;;7.98;59.52;96174.69;4931970;29;20062;-78
2023/10/07 03:43:35;;;;;;;13.73;6.55;;;;;;;8.09;59.43;96172.84;4921340;29;20487;-76
2023/10/07 03:46:00;;;;;;;13.52;6.75;;;;;;;8.08;59.82;96169.34;4896644;29;20059;-76
2023/10/07 03:48:31;;;;;;;9.82;5.95;;;;;;;8.24;59.11;96158.09;4929278;29;20064;-76
2023/10/07 03:50:59;;;;;;;12.95;6.30;;;;;;;7.90;60.27;96148.09;4892646;29;20603;-76
2023/10/07 03:53:31;;;;;;;14.07;6.20;;;;;;;8.32;58.69;96149.38;4927974;29;20062;-76
2023/10/07 03:55:58;;;;;;;12.50;6.05;;;;;;;8.63;58.26;96153.44;4910481;29;20121;-76
2023/10/07 03:58:23;;;;;;;10.70;6.15;;;;;;;8.60;58.62;96141.31;4926940;29;20118;-75
2023/10/07 04:00:49;;;;;;;15.48;6.53;;;;;;;8.74;57.60;96141.78;4927624;29;20067;-76
2023/10/07 04:03:15;;;;;;;12.80;6.22;;;;;;;8.16;59.41;96147.41;4917271;29;20148;-76
2023/10/07 04:05:45;;;;;;;12.90;6.70;;;;;;;9.07;56.74;96144.69;4918240;29;20187;-76
2023/10/07 04:08:11;;;;;;;13.10;6.00;;;;;;;9.00;57.26;96149.81;4900940;29;20164;-76
2023/10/07 04:10:36;;;;;;;15.35;5.95;;;;;;;9.06;57.10;96140.38;4917846;29;20072;-76
2023/10/07 04:13:07;;;;;;;12.00;5.80;;;;;;;9.09;57.08;96145.41;4921055;29;20128;-76
2023/10/07 04:15:51;;;;;;;12.95;6.18;;;;;;;9.02;57.15;96147.84;4930489;29;20944;-76
2023/10/07 04:18:17;;;;;;;10.93;6.43;;;;;;;9.28;56.42;96148.84;4931028;29;20271;-76
2023/10/07 04:23:21;;;;;;;10.63;6.20;;;;;;;9.52;55.65;96137.50;4914629;29;20088;-75
2023/10/07 04:25:47;;;;;;;10.57;6.22;;;;;;;9.54;55.34;96132.88;4919452;29;20153;-76
2023/10/07 04:28:15;;;;;;;11.75;5.60;;;;;;;9.56;55.70;96130.88;4901185;29;20070;-76
2023/10/07 04:30:46;;;;;;;12.27;6.45;;;;;;;9.25;55.78;96139.34;4935586;29;20162;-76
2023/10/07 04:33:12;;;;;;;12.02;6.30;;;;;;;9.74;55.02;96139.75;4916831;29;20048;-76
2023/10/07 04:35:38;;;;;;;12.15;6.15;;;;;;;9.87;54.36;96126.84;4917259;29;20144;-76
2023/10/07 04:38:30;;;;;;;11.63;6.57;;;;;;;8.47;58.29;96125.78;4898871;29;20156;-76
2023/10/07 04:46:24;;;;;;;12.18;5.63;;;;;;;10.02;54.18;96124.41;4930789;29;20705;-76
2023/10/07 04:48:56;;;;;;;12.57;5.95;;;;;;;10.02;54.25;96132.38;4916830;28;20043;-76
2023/10/07 04:53:58;;;;;;;11.15;5.45;;;;;;;9.98;54.36;96141.69;4923062;29;20103;-78
2023/10/07 04:56:25;;;;;;;10.73;5.57;;;;;;;9.78;54.74;96139.28;4921037;29;20087;-77
2023/10/07 04:58:53;;;;;;;9.47;5.17;;;;;;;10.00;54.46;96129.06;4930526;29;20079;-76
2023/10/07 05:01:30;;;;;;;9.00;5.13;;;;;;;10.02;54.43;96128.88;4923057;29;20053;-77
2023/10/07 05:03:55;;;;;;;11.68;5.65;;;;;;;10.18;54.04;96128.13;4937750;29;20886;-79
2023/10/07 05:06:28;;;;;;;10.65;5.45;;;;;;;10.04;54.47;96130.41;4936099;29;20081;-76
2023/10/07 05:08:54;;;;;;;9.48;5.20;;;;;;;10.15;54.32;96131.94;4936482;29;20056;-78
2023/10/07 05:11:19;;;;;;;12.00;5.22;;;;;;;10.00;54.50;96128.22;4914386;29;20170;-79
2023/10/07 05:13:46;;;;;;;11.98;5.22;;;;;;;10.14;54.44;96140.09;4927687;29;20052;-77
2023/10/07 05:16:12;;;;;;;9.82;5.40;;;;;;;10.07;54.36;96137.25;4919998;29;20137;-76
2023/10/07 05:18:38;;;;;;;10.45;5.05;;;;;;;10.10;54.47;96132.44;4907032;29;20080;-77
2023/10/07 05:21:04;;;;;;;13.35;4.80;;;;;;;10.31;53.91;96135.63;4915605;29;20077;-78
2023/10/07 05:23:30;;;;;;;9.75;5.22;;;;;;;10.09;54.28;96127.25;4929117;29;20172;-79
2023/10/07 05:25:56;;;;;;;13.48;5.43;;;;;;;10.17;53.88;96137.13;4934605;29;20052;-77
2023/10/07 05:28:21;;;;;;;10.23;5.60;;;;;;;10.17;53.99;96143.25;4928756;29;20066;-77
2023/10/07 05:30:52;;;;;;;9.57;5.22;;;;;;;10.06;54.09;96146.22;4935115;29;20615;-77
2023/10/07 05:33:17;;;;;;;11.32;5.32;;;;;;;10.05;54.55;96134.75;4898949;29;20135;-78
2023/10/07 05:35:43;;;;;;;13.23;5.60;;;;;;;10.11;54.15;96138.59;4932629;29;20634;-77
2023/10/07 05:38:11;;;;;;;10.65;5.50;;;;;;;10.11;54.21;96133.28;4912063;29;20097;-78
2023/10/07 05:40:37;;;;;;;8.88;5.15;;;;;;;10.00;54.37;96142.38;4933428;29;20495;-77
2023/10/07 05:43:04;;;;;;;11.57;5.55;;;;;;;10.07;54.24;96142.56;4919512;29;20069;-77
2023/10/07 05:45:30;;;;;;;9.30;5.90;;;;;;;10.02;54.62;96140.34;4915368;29;20056;-78
2023/10/07 05:47:55;;;;;;;11.25;5.70;;;;;;;10.15;54.12;96131.09;4911326;29;20417;-76
2023/10/07 05:50:22;;;;;;;12.13;5.90;;;;;;;10.21;53.70;96138.44;4927605;29;20070;-79
2023/10/07 05:52:48;;;;;;;9.80;5.20;;;;;;;10.02;54.53;96134.19;4901517;29;20102;-76
2023/10/07 05:55:13;;;;;;;8.65;5.18;;;;;;;9.91;54.83;96148.63;4928029;28;20075;-76
2023/10/07 05:57:39;;;;;;;12.82;6.28;;;;;;;9.56;55.41;96146.00;4886707;29;20052;-79
2023/10/07 06:00:09;;;;;;;13.95;5.65;;;;;;;10.03;54.45;96138.53;4930399;28;20079;-79
2023/10/07 06:02:36;;;;;;;11.05;5.50;;;;;;;9.75;55.59;96149.41;4937410;29;20413;-77
2023/10/07 06:05:01;;;;;;;10.50;4.70;;;;;;;9.98;54.81;96133.69;4938946;29;20126;-77
2023/10/07 06:07:27;;;;;;;12.43;5.93;;;;;;;10.08;54.68;96131.78;4931362;29;20712;-78
2023/10/07 06:09:52;;;;;;;10.70;6.13;;;;;;;10.23;54.03;96145.28;4910347;29;20044;-76
2023/10/07 06:12:18;;;;;;;11.68;5.80;;;;;;;10.35;53.63;96148.47;4930202;29;20090;-76
2023/10/07 06:14:43;;;;;;;12.38;5.55;;;;;;;10.26;53.86;96154.75;4915700;29;21161;-77
2023/10/07 06:17:11;;;;;;;12.90;6.10;;;;;;;10.22;53.91;96153.41;4909109;29;20137;-76
2023/10/07 06:19:37;;;;;;;12.05;6.18;;;;;;;10.12;54.31;96155.38;4936278;29;20583;-77
2023/10/07 06:22:12;;;;;;;12.23;5.82;;;;;;;10.34;53.72;96161.94;4925140;29;20104;-77
2023/10/07 06:24:39;;;;;;;11.23;6.15;;;;;;;10.30;53.57;96164.06;4931950;29;20045;-77
2023/10/07 06:27:11;;;;;;;10.10;5.65;;;;;;;10.18;54.19;96162.72;4917135;29;20071;-79
2023/10/07 06:29:41;;;;;;;10.55;5.70;;;;;;;10.08;54.16;96166.34;4932466;29;20051;-77
2023/10/07 06:32:28;;;;;;;13.00;5.90;;;;;;;9.52;55.73;96172.03;4900670;29;20079;-77
2023/10/07 06:34:55;;;;;;;12.40;6.45;;;;;;;9.72;54.91;96179.78;4916135;29;20083;-78
2023/10/07 06:37:25;;;;;;;12.23;5.78;;;;;;;9.78;55.31;96170.34;4917985;29;20727;-78
2023/10/07 06:39:51;;;;;;;13.73;6.30;;;;;;;9.46;55.72;96178.81;4931630;29;20183;-77
2023/10/07 06:42:21;;;;;;;12.38;6.07;;;;;;;9.53;56.37;96180.88;4912391;29;20565;-76
2023/10/07 06:44:47;;;;;;;13.23;5.68;;;;;;;9.75;55.28;96182.13;4941443;29;20071;-79
2023/10/07 06:47:13;;;;;;;9.48;5.60;;;;;;;9.95;54.89;96176.56;4924863;29;20122;-77
2023/10/07 06:49:39;;;;;;;11.40;5.68;;;;;;;10.01;54.72;96188.41;4938810;29;20058;-78
2023/10/07 06:52:05;;;;;;;10.00;4.93;;;;;;;9.99;54.85;96188.56;4935909;29;20160;-78
2023/10/07 06:54:32;;;;;;;13.73;6.28;;;;;;;9.65;55.46;96190.22;4909013;29;20113;-79
2023/10/07 06:56:58;;;;;;;9.98;6.03;;;;;;;10.15;54.16;96177.19;4911992;29;20496;-76
2023/10/07 06:59:28;;;;;;;10.52;5.95;;;;;;;10.20;54.01;96190.00;4904068;29;20073;-78
2023/10/07 07:01:57;;;;;;;12.90;6.03;;;;;;;10.27;54.20;96191.00;4926307;29;20043;-78
2023/10/07 07:04:22;;;;;;;11.15;5.53;;;;;;;10.35;53.85;96188.38;4928086;29;20084;-77
2023/10/07 07:06:58;;;;;;;9.48;5.38;;;;;;;10.48;53.84;96192.41;4902928;29;20089;-78
2023/10/07 07:09:42;;;;;;;12.88;5.35;;;;;;;10.66;53.19;96191.41;4911488;29;20504;-77
2023/10/07 07:12:11;;;;;;;9.85;5.70;;;;;;;10.32;54.02;96187.88;4892582;29;20156;-78
2023/10/07 07:14:37;;;;;;;12.25;5.63;;;;;;;10.34;54.10;96205.34;4893185;29;20073;-75
2023/10/07 07:17:49;;;;;;;14.93;5.60;;;;;;;10.72;53.40;96193.44;4873466;29;20036;-76
2023/10/07 07:20:18;;;;;;;13.25;5.72;;;;;;;10.78;53.31;96198.09;4899668;29;20508;-75
2023/10/07 07:22:38;;;;;;;8.13;5.10;;;;;;;11.01;52.81;96197.44;4909113;29;20082;-76
2023/10/07 07:25:10;;;;;;;11.30;5.68;;;;;;;10.67;53.18;96198.44;4887208;29;20743;-76
2023/10/07 07:27:36;;;;;;;11.23;5.65;;;;;;;9.23;57.65;96213.06;4905993;29;20042;-76
2023/10/07 07:30:02;;;;;;;9.80;4.78;;;;;;;10.54;53.84;96199.72;4888276;29;20402;-76
2023/10/07 07:32:37;;;;;;;9.55;5.13;;;;;;;10.58;54.52;96206.38;4906374;29;20052;-75
2023/10/07 07:35:03;;;;;;;9.02;5.35;;;;;;;9.79;57.34;96215.41;4902368;29;20383;-76
2023/10/07 07:37:31;;;;;;;10.77;5.63;;;;;;;10.52;55.08;96211.53;4914981;29;20057;-75
2023/10/07 07:40:09;;;;;;;11.65;5.72;;;;;;;10.45;55.14;96208.69;4920899;29;20062;-76
2023/10/07 07:42:34;;;;;;;10.05;5.18;;;;;;;10.64;54.92;96212.06;4934218;29;20068;-76
2023/10/07 07:45:01;;;;;;;11.05;5.38;;;;;;;10.55;55.22;96221.88;4910484;29;20455;-75
2023/10/07 07:47:31;;;;;;;10.80;5.50;;;;;;;10.65;54.78;96221.72;4890500;29;20493;-76
2023/10/07 07:49:57;;;;;;;12.50;5.63;;;;;;;10.46;54.34;96213.00;4929552;28;20644;-77
2023/10/07 07:52:23;;;;;;;10.40;5.60;;;;;;;10.74;54.79;96212.72;4926019;29;20103;-76
2023/10/07 07:54:48;;;;;;;9.40;4.88;;;;;;;10.68;54.91;96227.53;4878523;29;20602;-76
2023/10/07 07:57:16;;;;;;;15.43;5.60;;;;;;;10.15;56.52;96221.56;4904746;29;20412;-76
2023/10/07 07:59:43;;;;;;;8.27;4.40;;;;;;;9.98;56.77;96224.13;4918916;29;20062;-77
2023/10/07 08:02:12;;;;;;;11.68;5.40;;;;;;;9.85;58.04;96230.72;4921951;29;20069;-77
2023/10/07 08:04:42;;;;;;;13.80;4.75;;;;;;;9.92;57.77;96235.41;4924287;29;20048;-76
2023/10/07 08:10:03;;;;;;;11.68;5.18;;;;;;;10.08;57.35;96230.22;4912817;29;20105;-75
2023/10/07 08:12:30;;;;;;;11.88;5.20;;;;;;;10.08;57.52;96230.22;4875203;29;20039;-76
2023/10/07 08:15:06;;;;;;;11.85;5.22;;;;;;;10.48;56.74;96230.50;4910052;29;20667;-76
2023/10/07 08:17:32;;;;;;;9.98;4.97;;;;;;;10.57;56.29;96226.03;4908576;29;20037;-77
2023/10/07 08:20:07;;;;;;;11.70;5.15;;;;;;;10.97;55.53;96222.75;4886694;29;20087;-76
2023/10/07 08:22:33;;;;;;;10.25;5.30;;;;;;;11.35;54.36;96215.13;4920338;29;20184;-76
2023/10/07 08:25:00;;;;;;;10.43;4.80;;;;;;;11.43;53.97;96224.09;4914411;29;20598;-77
2023/10/07 08:27:44;;;;;;;11.23;5.10;;;;;;;11.25;54.00;96214.44;4906264;29;20680;-78
2023/10/07 08:30:13;;;;;;;10.02;4.63;;;;;;;11.49;53.39;96221.59;4900992;29;20804;-74
2023/10/07 08:32:41;;;;;;;10.50;4.95;;;;;;;11.01;55.10;96224.06;4881150;29;20054;-74
2023/10/07 08:35:14;;;;;;;11.63;5.03;;;;;;;11.12;55.26;96214.97;4909887;29;20082;-74
2023/10/07 08:37:46;;;;;;;9.60;4.82;;;;;;;10.88;55.53;96224.56;4896165;29;20494;-74
2023/10/07 08:40:26;;;;;;;8.63;4.60;;;;;;;11.16;55.42;96216.31;4908799;29;20113;-74
2023/10/07 08:43:04;;;;;;;11.10;4.97;;;;;;;10.36;57.27;96229.13;4910026;29;20661;-74
2023/10/07 08:45:30;;;;;;;10.65;4.57;;;;;;;11.20;55.64;96224.78;4894936;29;20047;-74
2023/10/07 08:48:08;;;;;;;8.70;4.25;;;;;;;11.08;55.70;96219.75;4892486;29;20164;-74
2023/10/07 08:50:49;;;;;;;9.23;4.03;;;;;;;11.02;56.34;96223.09;4906618;29;20122;-74
2023/10/07 08:53:15;;;;;;;10.10;4.25;;;;;;;11.22;55.75;96220.94;4911077;29;20164;-75
2023/10/07 08:55:40;;;;;;;9.55;4.63;;;;;;;10.83;56.17;96219.75;4894619;29;20076;-74
2023/10/07 08:58:11;;;;;;;10.65;4.72;;;;;;;10.67;56.49;96222.41;4912144;29;20085;-74
2023/10/07 09:00:45;;;;;;;10.20;4.05;;;;;;;11.24;55.59;96218.13;4895476;29;20039;-74
2023/10/07 09:03:14;;;;;;;10.02;3.97;;;;;;;10.96;56.61;96226.41;4894637;29;20636;-74
2023/10/07 09:05:41;;;;;;;7.63;3.80;;;;;;;11.12;56.02;96209.66;4909510;29;20094;-74
2023/10/07 09:08:11;;;;;;;8.77;4.40;;;;;;;11.34;55.60;96202.78;4911609;29;20547;-74
2023/10/07 09:10:40;;;;;;;10.95;5.53;;;;;;;11.58;55.54;96211.75;4910353;29;20066;-74
2023/10/07 09:13:12;;;;;;;8.27;4.18;;;;;;;11.96;54.27;96203.13;4912344;29;20035;-74
2023/10/07 09:15:42;;;;;;;8.45;4.10;;;;;;;12.11;53.91;96200.59;4894249;29;20106;-74
2023/10/07 09:18:10;;;;;;;12.60;4.85;;;;;;;12.07;54.24;96212.63;4890753;29;20082;-74
2023/10/07 09:20:43;;;;;;;7.43;4.00;;;;;;;11.55;54.90;96224.56;4894644;29;20705;-74
2023/10/07 09:23:15;;;;;;;8.85;4.63;;;;;;;11.87;54.83;96217.53;4892824;29;20077;-74
2023/10/07 09:25:46;;;;;;;5.20;3.53;;;;;;;11.85;54.60;96214.19;4911766;29;20046;-74
2023/10/07 09:28:13;;;;;;;8.23;4.85;;;;;;;11.88;54.55;96228.03;4912487;29;20519;-74
2023/10/07 09:33:14;;;;;;;8.05;3.97;;;;;;;12.29;53.78;96228.91;4913426;29;20042;-74
2023/10/07 09:35:43;;;;;;;10.82;4.35;;;;;;;12.06;54.25;96231.44;4914685;29;20062;-73
2023/10/07 09:38:33;;;;;;;8.10;4.00;;;;;;;12.49;53.30;96231.13;4920399;29;20571;-75
2023/10/07 09:43:47;;;;;;;8.55;3.75;;;;;;;11.72;55.42;96242.22;4921544;29;20044;-75
2023/10/07 09:46:15;;;;;;;8.80;4.18;;;;;;;12.11;54.73;96237.97;4914716;29;20540;-77
2023/10/07 09:48:42;;;;;;;8.00;4.97;;;;;;;11.98;54.66;96240.31;4904529;29;20138;-76
2023/10/07 09:51:22;;;;;;;10.07;4.47;;;;;;;11.49;56.04;96250.09;4932042;29;20062;-75
2023/10/07 09:54:10;;;;;;;10.18;3.97;;;;;;;11.31;57.02;96245.78;4903296;29;20074;-76
2023/10/07 09:56:48;;;;;;;7.43;4.90;;;;;;;11.35;56.25;96251.59;4902229;29;20154;-77
2023/10/07 09:59:36;;;;;;;10.63;4.85;;;;;;;12.17;54.44;96240.97;4932111;29;20799;-76
2023/10/07 10:02:16;;;;;;;9.63;3.70;;;;;;;12.28;54.11;96244.06;4934257;29;20035;-76
2023/10/07 10:04:52;;;;;;;6.40;3.75;;;;;;;12.22;54.46;96243.94;4930770;29;20664;-76
2023/10/07 10:07:28;;;;;;;9.82;4.63;;;;;;;11.69;55.76;96239.88;4934406;29;20055;-77
2023/10/07 10:10:07;;;;;;;9.52;4.55;;;;;;;12.31;53.95;96231.41;4932823;29;20833;-75
2023/10/07 10:17:53;;;;;;;7.75;4.50;;;;;;;12.64;53.46;96229.38;4910319;29;20032;-76
2023/10/07 10:20:27;;;;;;;7.50;4.30;;;;;;;12.67;53.30;96221.03;4932814;29;20049;-77
2023/10/07 10:22:53;;;;;;;7.72;4.18;;;;;;;12.24;54.31;96233.94;4908794;29;20295;-77
2023/10/07 10:25:37;;;;;;;8.60;4.70;;;;;;;11.96;55.19;96234.31;4919590;29;20031;-76
2023/10/07 10:28:03;;;;;;;10.90;4.50;;;;;;;12.60;54.05;96237.91;4928579;28;20574;-76
2023/10/07 10:30:32;;;;;;;10.73;4.93;;;;;;;12.27;53.99;96246.91;4916404;29;20035;-75
2023/10/07 10:33:01;;;;;;;8.82;5.10;;;;;;;11.16;57.95;96244.78;4918407;29;20543;-77
2023/10/07 10:35:27;;;;;;;9.60;3.95;;;;;;;12.58;54.52;96240.75;4916321;29;20126;-76
2023/10/07 10:37:58;;;;;;;10.35;4.60;;;;;;;12.26;54.44;96246.09;4916415;29;20482;-77
2023/10/07 10:40:24;;;;;;;9.02;4.60;;;;;;;13.37;52.28;96238.91;4916577;29;20086;-77
2023/10/07 10:42:49;;;;;;;8.02;5.00;;;;;;;12.06;55.69;96240.31;4909475;29;20107;-76
2023/10/07 10:45:24;;;;;;;11.43;4.03;;;;;;;12.86;53.73;96242.94;4931310;29;20041;-77
2023/10/07 10:47:53;;;;;;;10.35;4.53;;;;;;;12.99;53.62;96233.50;4896990;29;20135;-76
2023/10/07 10:50:20;;;;;;;10.07;4.93;;;;;;;12.58;54.72;96235.41;4911144;29;20410;-76
2023/10/07 10:52:48;;;;;;;9.32;4.63;;;;;;;12.91;53.49;96229.88;4930055;29;20019;-77
2023/10/07 10:55:15;;;;;;;8.00;4.35;;;;;;;13.41;52.20;96224.16;4890745;29;20079;-76
2023/10/07 10:57:40;;;;;;;10.70;3.88;;;;;;;14.06;50.06;96236.25;4936151;29;20038;-76
2023/10/07 11:00:19;;;;;;;6.63;3.65;;;;;;;14.27;50.88;96215.91;4890664;29;20078;-76
2023/10/07 11:02:45;;;;;;;9.20;3.83;;;;;;;14.07;51.69;96211.97;4937463;29;20105;-77
2023/10/07 11:05:12;;;;;;;7.50;3.90;;;;;;;14.49;50.65;96207.94;4935347;29;20473;-76
2023/10/07 11:07:39;;;;;;;8.40;3.90;;;;;;;14.11;51.12;96212.41;4936493;29;20092;-77
2023/10/07 11:10:09;;;;;;;11.35;4.22;;;;;;;14.49;50.49;96207.94;4919450;29;20046;-77
2023/10/07 11:12:36;;;;;;;5.75;3.72;;;;;;;15.12;48.74;96212.72;4918843;29;20035;-76
2023/10/07 11:15:12;;;;;;;7.50;3.75;;;;;;;15.87;46.83;96211.44;4886733;29;20086;-74
2023/10/07 11:17:41;;;;;;;7.97;3.70;;;;;;;14.86;48.43;96200.72;4924906;29;20023;-75
2023/10/07 11:20:09;;;;;;;7.22;3.05;;;;;;;15.94;47.15;96209.63;4902931;29;20051;-75
2023/10/07 11:22:42;;;;;;;5.55;3.05;;;;;;;15.60;47.50;96204.03;4925816;29;20652;-75
2023/10/07 11:25:14;;;;;;;7.35;2.70;;;;;;;15.30;48.25;96209.56;4897824;29;20397;-75
2023/10/07 11:27:42;;;;;;;6.07;3.00;;;;;;;13.89;51.26;96209.66;4909025;29;20618;-75
2023/10/07 11:30:11;;;;;;;5.03;2.80;;;;;;;14.72;49.63;96197.88;4932168;29;20057;-75
2023/10/07 11:32:40;;;;;;;6.13;2.88;;;;;;;14.15;49.83;96210.19;4914546;29;20047;-76
2023/10/07 11:35:15;;;;;;;5.13;2.72;;;;;;;13.72;51.65;96211.66;4930916;28;20109;-78
2023/10/07 11:37:46;;;;;;;7.85;2.92;;;;;;;13.63;52.25;96215.44;4930273;29;20065;-78
2023/10/07 11:40:12;;;;;;;3.80;2.58;;;;;;;13.72;51.98;96214.34;4899696;29;20070;-76
2023/10/07 11:42:37;;;;;;;6.68;2.80;;;;;;;13.93;51.02;96208.28;4925131;29;20415;-75
2023/10/07 11:45:05;;;;;;;6.78;2.80;;;;;;;13.95;51.59;96214.25;4916122;29;20050;-78
2023/10/07 11:47:31;;;;;;;8.20;3.50;;;;;;;14.02;50.09;96197.47;4934852;29;20434;-76
2023/10/07 11:49:56;;;;;;;10.45;3.67;;;;;;;14.20;50.17;96189.88;4916165;29;20047;-76
2023/10/07 11:52:21;;;;;;;5.93;3.30;;;;;;;14.88;49.00;96189.78;4925572;29;20028;-75
2023/10/07 11:54:47;;;;;;;6.18;3.15;;;;;;;15.06;47.52;96202.78;4910942;29;20040;-75
2023/10/07 11:57:13;;;;;;;6.90;2.83;;;;;;;15.32;47.88;96185.22;4914662;29;20118;-75
2023/10/07 11:59:41;;;;;;;7.82;3.55;;;;;;;15.94;46.44;96188.13;4894072;29;20039;-75
2023/10/07 12:02:10;;;;;;;5.43;2.83;;;;;;;15.22;47.92;96196.28;4910401;29;20069;-75
2023/10/07 12:04:39;;;;;;;5.40;3.13;;;;;;;15.69;46.61;96191.31;4919290;29;20066;-76
2023/10/07 12:07:08;;;;;;;5.75;3.15;;;;;;;15.36;47.33;96197.22;4921196;29;20633;-76
2023/10/07 12:09:34;;;;;;;7.90;3.67;;;;;;;16.16;45.47;96206.84;4881113;29;20721;-74
2023/10/07 12:12:00;;;;;;;8.23;3.60;;;;;;;16.78;43.91;96203.34;4897472;29;20043;-74
2023/10/07 12:14:27;;;;;;;7.82;3.47;;;;;;;16.27;44.73;96210.81;4912169;29;20445;-75
2023/10/07 12:16:52;;;;;;;5.77;3.30;;;;;;;15.35;46.06;96195.56;4908712;29;20036;-76
2023/10/07 12:19:18;;;;;;;4.68;2.80;;;;;;;15.86;46.18;96213.31;4927532;29;20341;-75
2023/10/07 12:21:50;;;;;;;5.65;3.05;;;;;;;16.41;44.49;96203.66;4915413;29;20032;-75